Relevés horaires Chievres (Belgique)


Relevés horaires à Chievres - Mercredi 03 Juin 2020
Heure UTC1 Température [°C] Vent [km/h] Hum. [%] Pres.4 [hPa] Visi. [Km] Nébu. [octa] Préc.5 [mm] Cond.
2m. Res. Ros. Dir.2 Vit. Moy. Raf.3
23:00 13.1 12.8 11.0 N 7.4 -- 11.1 87 1002(-1.0/3h) 13 -- -- --
22:00 13.8 13.6 10.6 NNO 7.4 -- 13.0 81 1002.7(0.0/3h) 20 -- -- --
21:00 14.8 14.5 10.0 NNO 9.3 -- 16.7 73 1003(0.0/3h) 20 -- -- --
20:00 16.1 16 9.1 N 9.3 -- 13.0 63 1003(0.0/3h) 20 -- -- --
19:00 18.0 18.0 9.8 N 9.3 -- 16.7 59 1002.7(-0.5/3h) 20 -- -- --
18:00 20.1 20.1 9.9 N 13.0 -- 16.7 52 1002.8(-0.8/3h) 19 -- -- --
17:00 21.6 21.6 7.8 NNO 7.4 -- 13.0 41 1002.7(-1.4/3h) 20 -- -- --
16:00 21.6 21.6 8.5 N 5.6 -- 11.1 43 1003.2(-1.6/3h) 18 -- -- --
15:00 22.3 22.3 7.6 NO 5.6 -- 11.1 39 1003.7(-1.8/3h) 20 -- -- --
14:00 23.2 23.2 7.9 ONO 3.7 -- 11.1 37 1004.2(-2.0/3h) 20 -- -- --
13:00 21.8 21.8 6.8 NO 3.7 -- 11.1 38 1004.7(-1.9/3h) 20 -- -- --
12:00 22.4 22.4 3.9 NO 3.7 -- 11.1 30 1005.6(-1.8/3h) 20 -- -- --
11:00 21.1 21.1 4.3 NNO 1.9 -- 9.3 33 1006.3(-1.5/3h) 20 -- -- --
10:00 20.5 20.5 6.9 ONO 5.6 -- 9.3 41 1006.7(-1.5/3h) 20 -- -- --
09:00 19.7 19.7 9.3 O 3.7 -- 11.1 51 1007.5(-0.9/3h) 18 -- -- --
08:00 18.3 18.3 9.9 NNO 3.7 -- 7.4 58 1008(-0.9/3h) 12 -- -- --
07:00 16.2 16.2 10.9 NNO 3.7 -- 3.7 71 1008.5(-0.7/3h) 10 -- -- --
06:00 14.4 14.4 11.0 NNO 1.9 -- 5.6 80 1008.6(-1.0/3h) 10 -- -- --
05:00 11.6 11.6 9.1 NNO 1.9 -- 3.7 85 1009.1(-1.2/3h) 14 -- -- --
04:00 10.8 10.8 8.5 NNO 1.9 -- 1.9 86 1009.3(-1.7/3h) 17 -- -- --
03:00 11.0 11.0 8.4 NNO 1.9 -- 1.9 84 1009.7(-1.9/3h) 20 -- -- --
02:00 11.6 11.6 8.8 NNO 1.9 -- 1.9 83 1010.3(-1.9/3h) 20 -- -- --
01:00 12.6 12.6 8.9 NNO 1.9 -- 1.9 78 1011.1(-1.7/3h) 20 -- -- --
00:00 13.6 13.6 9.0 NNO 1.9 -- 13.0 74 1011.7(-1.5/3h) 20 -- -- --

1 Coordinated Universal Time. Actuellement il est 05:00 locale et 03:00 UTC.

2 Le vent souffle depuis la direction indiquée vers la direction oposée.

3 Les rafales max. sont disponible 40 min après l'heure du relevé.

4 Pour les stations d'altitude (plus de 600m) le géopotentiel du niveau le plus proche de la pression obligatoire est indiqué.

5 Les stations disposant d'un diffuseur peuvent indiquer "trace". Cela signifie que des précipitations ont touchés le sol mais que la quantité est inférieure à 0.1 mm.

Récapitulatif de la journée
Température [°C] Vent [km/h] Ensoleillement4 [h] Precipitations totale5 [mm] Pression [Hpa]
Min1 Max.2 Moy.3 Max. Min Max.
10.5 23.7 0 16.7 0 h 0 min 0 1002.0 1011.7

1 Température minimale relevée entre 18:00 UTC la veille et 18:00 UTC le jour donné.

2 Température maximale relevée entre 06:00 UTC le jour donné et 06:00 UTC le lendemain.

3 Vent moyen de la journée basé sur les relevés horaires.

4 Ensoleillement en heures relevé entre 06:00 UTC la veille et 06:00 UTC le jour donné.

5 Précipitations totales tombées entre 06:00 UTC la jour donné et 06:00 UTC le lendemain.

Graphiques horaires